createdAt,value
2018-04-10T00:01:03.448Z,86.80
2018-04-10T00:03:30.975Z,86.80
2018-04-10T00:05:58.552Z,87.00
2018-04-10T00:08:26.932Z,88.10
2018-04-10T00:10:55.206Z,87.40
2018-04-10T00:13:23.551Z,87.50
2018-04-10T00:15:51.056Z,87.50
2018-04-10T00:18:18.584Z,87.60
2018-04-10T00:20:46.072Z,87.60
2018-04-10T00:23:13.616Z,87.80
2018-04-10T00:25:42.632Z,87.60
2018-04-10T00:28:10.154Z,87.50
2018-04-10T00:30:37.688Z,87.70
2018-04-10T00:33:05.188Z,87.70
2018-04-10T00:35:33.462Z,87.90
2018-04-10T00:38:01.782Z,88.20
2018-04-10T00:40:29.507Z,88.10
2018-04-10T00:42:57.005Z,88.40
2018-04-10T00:45:24.588Z,88.40
2018-04-10T00:47:52.114Z,88.70
2018-04-10T00:50:19.623Z,88.50
2018-04-10T00:52:47.215Z,88.50
2018-04-10T00:55:15.240Z,88.50
2018-04-10T00:57:42.754Z,88.50
2018-04-10T01:00:10.260Z,88.40
2018-04-10T01:02:38.591Z,88.70
2018-04-10T01:05:06.431Z,88.50
2018-04-10T01:07:34.691Z,88.80
2018-04-10T01:10:02.734Z,88.70
2018-04-10T01:12:30.251Z,88.80
2018-04-10T01:14:57.740Z,88.90
2018-04-10T01:17:25.262Z,88.90
2018-04-10T01:19:52.811Z,88.80
2018-04-10T01:22:21.095Z,88.80
2018-04-10T01:24:49.357Z,88.70
2018-04-10T01:27:17.732Z,89.00
2018-04-10T01:29:46.011Z,89.00
2018-04-10T01:32:14.299Z,89.40
2018-04-10T01:34:42.563Z,89.70
2018-04-10T01:37:10.855Z,90.00
2018-04-10T01:39:39.217Z,90.10
2018-04-10T01:42:07.510Z,90.30
2018-04-10T01:44:35.024Z,90.20
2018-04-10T01:47:02.543Z,90.40
2018-04-10T01:49:30.043Z,90.50
2018-04-10T01:51:57.909Z,90.50
2018-04-10T01:54:25.428Z,90.60
2018-04-10T01:56:52.942Z,90.80
2018-04-10T01:59:20.450Z,90.90
2018-04-10T02:01:47.953Z,90.90
2018-04-10T02:04:15.517Z,91.00
2018-04-10T02:06:43.579Z,91.50
2018-04-10T02:09:11.161Z,91.20
2018-04-10T02:11:39.424Z,91.40
2018-04-10T02:14:07.712Z,91.50
2018-04-10T02:16:35.983Z,91.60
2018-04-10T02:19:04.278Z,91.70
2018-04-10T02:21:31.857Z,91.70
2018-04-10T02:23:59.445Z,91.90
2018-04-10T02:26:26.953Z,91.90
2018-04-10T02:28:54.486Z,92.10
2018-04-10T02:31:21.982Z,92.10
2018-04-10T02:33:49.538Z,92.10
2018-04-10T02:36:17.037Z,92.10
2018-04-10T02:38:44.563Z,92.10
2018-04-10T02:41:12.099Z,92.00
2018-04-10T02:43:41.207Z,91.90
2018-04-10T02:46:08.728Z,91.90
2018-04-10T02:48:36.408Z,91.80
2018-04-10T02:51:04.823Z,91.80
2018-04-10T02:53:32.349Z,91.80
2018-04-10T02:56:00.642Z,91.90
2018-04-10T02:58:28.895Z,91.90
2018-04-10T03:00:57.189Z,92.00
2018-04-10T03:03:25.464Z,92.10
2018-04-10T03:05:53.024Z,92.10
2018-04-10T03:08:21.298Z,92.10
2018-04-10T03:10:49.576Z,92.20
2018-04-10T03:13:17.085Z,92.20
2018-04-10T03:15:44.585Z,92.20
2018-04-10T03:18:12.852Z,92.40
2018-04-10T03:20:41.185Z,92.40
2018-04-10T03:23:09.476Z,92.50
2018-04-10T03:25:36.975Z,92.50
2018-04-10T03:28:05.282Z,92.60
2018-04-10T03:30:42.706Z,92.60
2018-04-10T03:33:10.220Z,92.60
2018-04-10T03:35:37.789Z,92.70
2018-04-10T03:38:05.437Z,92.80
2018-04-10T03:40:33.011Z,92.70
2018-04-10T03:43:00.512Z,92.80
2018-04-10T03:45:28.059Z,92.90
2018-04-10T03:47:55.778Z,92.90
2018-04-10T03:50:24.883Z,92.90
2018-04-10T03:52:52.419Z,92.90
2018-04-10T03:55:20.696Z,93.00
2018-04-10T03:57:48.974Z,93.00
2018-04-10T04:00:17.232Z,93.00
2018-04-10T04:02:45.516Z,93.10
2018-04-10T04:05:13.007Z,93.10
2018-04-10T04:07:40.503Z,93.10
2018-04-10T04:10:08.098Z,93.10
2018-04-10T04:12:36.368Z,93.10
2018-04-10T04:15:04.680Z,93.20
2018-04-10T04:17:34.127Z,93.10
2018-04-10T04:20:13.537Z,93.20
2018-04-10T04:22:41.056Z,93.30
2018-04-10T04:25:09.347Z,93.30
2018-04-10T04:27:36.868Z,93.30
2018-04-10T04:30:04.381Z,93.40
2018-04-10T04:32:31.931Z,93.50
2018-04-10T04:34:59.476Z,93.50
2018-04-10T04:37:27.092Z,93.60
2018-04-10T04:39:54.632Z,93.50
2018-04-10T04:42:22.149Z,93.40
2018-04-10T04:44:50.465Z,93.60
2018-04-10T04:47:17.980Z,93.50
2018-04-10T04:49:46.568Z,93.50
2018-04-10T04:52:14.073Z,93.50
2018-04-10T04:54:41.939Z,93.60
2018-04-10T04:57:09.450Z,93.60
2018-04-10T04:59:37.413Z,93.80
2018-04-10T05:02:05.758Z,93.80
2018-04-10T05:04:33.356Z,93.70
2018-04-10T05:07:01.631Z,93.70
2018-04-10T05:09:29.141Z,93.70
2018-04-10T05:11:56.699Z,93.70
2018-04-10T05:14:24.204Z,93.70
2018-04-10T05:16:52.500Z,93.70
2018-04-10T05:19:20.004Z,93.70
2018-04-10T05:21:47.507Z,93.70
2018-04-10T05:24:15.061Z,93.60
2018-04-10T05:26:43.352Z,93.40
2018-04-10T05:29:10.848Z,93.40
2018-04-10T05:31:38.672Z,93.40
2018-04-10T05:34:06.185Z,93.20
2018-04-10T05:36:33.771Z,93.20
2018-04-10T05:39:02.038Z,93.30
2018-04-10T05:41:30.330Z,93.30
2018-04-10T05:43:58.660Z,93.50
2018-04-10T05:46:26.172Z,93.40
2018-04-10T05:48:54.443Z,93.60
2018-04-10T05:51:21.948Z,93.60
2018-04-10T05:53:49.445Z,93.60
2018-04-10T05:56:17.884Z,93.50
2018-04-10T05:58:45.465Z,93.50
2018-04-10T06:01:12.947Z,93.50
2018-04-10T06:03:40.508Z,93.40
2018-04-10T06:06:08.756Z,93.40
2018-04-10T06:08:36.278Z,93.40
2018-04-10T06:11:03.776Z,93.40
2018-04-10T06:13:31.475Z,93.50
2018-04-10T06:15:58.993Z,93.40
2018-04-10T06:18:26.495Z,93.30
2018-04-10T06:20:54.037Z,93.40
2018-04-10T06:23:22.304Z,93.40
2018-04-10T06:25:50.604Z,93.40
2018-04-10T06:28:18.100Z,93.40
2018-04-10T06:30:45.676Z,93.20
2018-04-10T06:33:13.166Z,93.20
2018-04-10T06:35:41.548Z,93.10
2018-04-10T06:38:09.856Z,93.10
2018-04-10T06:40:37.387Z,93.00
2018-04-10T06:43:05.661Z,93.00
2018-04-10T06:45:33.939Z,92.80
2018-04-10T06:48:02.201Z,92.90
2018-04-10T06:50:30.556Z,92.90
2018-04-10T06:52:58.092Z,92.80
2018-04-10T06:55:26.337Z,92.30
2018-04-10T06:57:54.697Z,92.30
2018-04-10T07:00:22.221Z,92.30
2018-04-10T07:02:49.739Z,92.50
2018-04-10T07:05:17.240Z,92.60
2018-04-10T07:07:44.777Z,92.30
2018-04-10T07:10:12.289Z,92.00
2018-04-10T07:12:40.549Z,91.60
2018-04-10T07:15:08.076Z,91.40
2018-04-10T07:17:35.655Z,91.10
2018-04-10T07:20:03.293Z,90.80
2018-04-10T07:22:30.811Z,90.50
2018-04-10T07:24:59.058Z,89.50
2018-04-10T07:27:26.608Z,89.50
2018-04-10T07:29:55.012Z,89.60
2018-04-10T07:32:22.531Z,88.80
2018-04-10T07:34:50.175Z,88.20
2018-04-10T07:37:17.694Z,87.10
2018-04-10T07:39:45.207Z,86.00
2018-04-10T07:42:12.705Z,83.00
2018-04-10T07:44:40.220Z,82.30
2018-04-10T07:47:07.744Z,80.50
2018-04-10T07:49:36.061Z,78.20
2018-04-10T07:52:03.570Z,78.10
2018-04-10T07:54:31.088Z,77.90
2018-04-10T07:56:58.597Z,76.60
2018-04-10T07:59:26.894Z,76.90
2018-04-10T08:01:54.540Z,76.90
2018-04-10T08:04:22.050Z,75.60
2018-04-10T08:06:49.583Z,76.80
2018-04-10T08:09:17.092Z,75.20
2018-04-10T08:11:45.422Z,76.80
2018-04-10T08:14:12.931Z,76.50
2018-04-10T08:16:41.226Z,75.80
2018-04-10T08:19:09.601Z,77.20
2018-04-10T08:21:37.904Z,76.50
2018-04-10T08:24:05.407Z,76.50
2018-04-10T08:26:32.904Z,75.50
2018-04-10T08:29:00.399Z,75.50
2018-04-10T08:31:28.707Z,75.70
2018-04-10T08:33:57.006Z,76.40
2018-04-10T08:36:25.303Z,73.10
2018-04-10T08:38:52.933Z,73.00
2018-04-10T08:41:21.236Z,72.90
2018-04-10T08:43:48.722Z,72.80
2018-04-10T08:46:16.249Z,73.30
2018-04-10T08:48:43.748Z,72.80
2018-04-10T08:51:11.340Z,72.60
2018-04-10T08:53:39.613Z,72.60
2018-04-10T08:56:07.908Z,69.60
2018-04-10T08:58:36.192Z,69.30
2018-04-10T09:01:03.690Z,69.40
2018-04-10T09:03:31.188Z,69.70
2018-04-10T09:06:09.387Z,69.10
2018-04-10T09:08:37.639Z,67.60
2018-04-10T09:11:05.165Z,67.50
2018-04-10T09:13:32.651Z,67.60
2018-04-10T09:16:00.176Z,67.30
2018-04-10T09:18:27.691Z,66.90
2018-04-10T09:20:55.965Z,67.40
2018-04-10T09:23:23.464Z,66.50
2018-04-10T09:25:51.012Z,66.50
2018-04-10T09:28:18.516Z,65.90
2018-04-10T09:30:46.020Z,65.50
2018-04-10T09:33:14.303Z,66.10
2018-04-10T09:35:42.587Z,66.00
2018-04-10T09:38:10.081Z,66.00
2018-04-10T09:40:37.606Z,67.00
2018-04-10T09:43:05.148Z,66.70
2018-04-10T09:45:33.514Z,67.40
2018-04-10T09:48:01.797Z,68.70
2018-04-10T09:50:30.425Z,67.70
2018-04-10T09:52:57.901Z,67.70
2018-04-10T09:55:25.593Z,67.30
2018-04-10T09:57:53.110Z,67.40
2018-04-10T10:00:26.243Z,67.90
2018-04-10T10:02:53.712Z,66.70
2018-04-10T10:05:22.022Z,68.00
2018-04-10T10:07:49.847Z,67.20
2018-04-10T10:10:17.387Z,66.40
2018-04-10T10:12:44.893Z,66.40
2018-04-10T10:15:12.418Z,66.30
2018-04-10T10:17:40.736Z,66.20
2018-04-10T10:20:08.292Z,66.20
2018-04-10T10:22:35.887Z,65.90
2018-04-10T10:25:03.419Z,65.70
2018-04-10T10:27:30.932Z,64.60
2018-04-10T10:29:59.181Z,64.90
2018-04-10T10:32:26.745Z,65.20
2018-04-10T10:34:54.263Z,65.70
2018-04-10T10:37:21.824Z,65.80
2018-04-10T10:39:49.317Z,65.80
2018-04-10T10:42:16.915Z,66.00
2018-04-10T10:44:45.201Z,66.40
2018-04-10T10:47:12.689Z,66.40
2018-04-10T10:49:40.354Z,67.00
2018-04-10T10:52:07.878Z,68.00
2018-04-10T10:54:36.144Z,66.60
2018-04-10T10:57:04.844Z,66.40
2018-04-10T10:59:32.352Z,66.40
2018-04-10T11:01:59.880Z,65.70
2018-04-10T11:04:27.407Z,65.80
2018-04-10T11:06:55.925Z,66.30
2018-04-10T11:09:23.485Z,66.30
2018-04-10T11:11:51.315Z,65.80
2018-04-10T11:14:19.588Z,66.30
2018-04-10T11:16:47.870Z,65.20
2018-04-10T11:19:16.155Z,66.00
2018-04-10T11:21:43.640Z,66.00
2018-04-10T11:24:11.156Z,65.30
2018-04-10T11:26:39.423Z,64.90
2018-04-10T11:29:07.786Z,64.00
2018-04-10T11:31:35.293Z,64.00
2018-04-10T11:34:03.133Z,64.50
2018-04-10T11:36:31.556Z,63.20
2018-04-10T11:38:59.089Z,63.10
2018-04-10T11:41:27.388Z,63.20
2018-04-10T11:43:54.892Z,63.10
2018-04-10T11:46:23.160Z,61.90
2018-04-10T11:48:50.687Z,61.80
2018-04-10T11:51:18.241Z,61.50
2018-04-10T11:53:45.764Z,59.80
2018-04-10T11:56:13.329Z,59.60
2018-04-10T11:58:41.619Z,60.60
2018-04-10T12:01:10.007Z,59.40
2018-04-10T12:03:37.624Z,59.40
2018-04-10T12:06:05.883Z,60.60
2018-04-10T12:08:33.565Z,60.70
2018-04-10T12:11:01.283Z,60.00
2018-04-10T12:13:28.908Z,59.90
2018-04-10T12:15:57.317Z,60.50
2018-04-10T12:18:24.782Z,60.50
2018-04-10T12:20:52.295Z,60.70
2018-04-10T12:23:20.793Z,59.70
2018-04-10T12:25:48.397Z,59.80
2018-04-10T12:28:15.884Z,59.60
2018-04-10T12:30:43.437Z,59.60
2018-04-10T12:33:10.913Z,60.20
2018-04-10T12:35:38.684Z,59.10
2018-04-10T12:38:06.997Z,59.60
2018-04-10T12:40:45.049Z,59.60
2018-04-10T12:43:12.543Z,59.60
2018-04-10T12:45:40.044Z,59.30
2018-04-10T12:48:07.633Z,58.50
2018-04-10T12:50:35.902Z,58.30
2018-04-10T12:53:03.437Z,58.30
2018-04-10T12:55:31.051Z,58.60
2018-04-10T12:57:59.373Z,58.50
2018-04-10T13:00:26.864Z,58.50
2018-04-10T13:02:55.128Z,58.00
2018-04-10T13:05:22.637Z,58.00
2018-04-10T13:07:50.128Z,58.20
2018-04-10T13:10:18.067Z,57.30
2018-04-10T13:12:46.394Z,57.50
2018-04-10T13:15:13.899Z,57.40
2018-04-10T13:17:41.388Z,57.70
2018-04-10T13:20:08.917Z,56.50
2018-04-10T13:22:36.404Z,55.50
2018-04-10T13:25:03.927Z,56.20
2018-04-10T13:27:31.437Z,56.30
2018-04-10T13:29:58.944Z,54.90
2018-04-10T13:32:26.428Z,55.90
2018-04-10T13:34:53.975Z,54.70
2018-04-10T13:37:21.522Z,54.70
2018-04-10T13:39:49.029Z,55.30
2018-04-10T13:42:17.361Z,55.90
2018-04-10T13:44:44.847Z,55.90
2018-04-10T13:47:12.365Z,55.70
2018-04-10T13:49:39.840Z,55.50
2018-04-10T13:52:07.408Z,55.30
2018-04-10T13:54:34.920Z,55.60
2018-04-10T13:57:03.297Z,57.40
2018-04-10T13:59:31.711Z,56.30
2018-04-10T14:01:59.951Z,56.60
2018-04-10T14:04:27.766Z,56.60
2018-04-10T14:06:55.240Z,56.10
2018-04-10T14:09:22.828Z,57.10
2018-04-10T14:11:51.179Z,57.20
2018-04-10T14:14:18.694Z,57.10
2018-04-10T14:16:46.189Z,56.40
2018-04-10T14:19:13.687Z,57.10
2018-04-10T14:21:42.685Z,57.30
2018-04-10T14:24:10.974Z,57.50
2018-04-10T14:26:38.508Z,57.50
2018-04-10T14:29:06.792Z,57.50
2018-04-10T14:31:35.438Z,56.50
2018-04-10T14:34:02.951Z,56.40
2018-04-10T14:36:30.452Z,56.70
2018-04-10T14:38:57.987Z,57.90
2018-04-10T14:41:25.561Z,57.70
2018-04-10T14:43:53.086Z,57.90
2018-04-10T14:46:20.586Z,58.20
2018-04-10T14:48:48.175Z,57.50
2018-04-10T14:51:15.809Z,57.60
2018-04-10T14:53:43.314Z,57.60
2018-04-10T14:56:11.572Z,57.70
2018-04-10T14:58:40.204Z,58.10
2018-04-10T15:01:17.819Z,58.00
2018-04-10T15:03:45.346Z,58.20
2018-04-10T15:06:12.890Z,57.80
2018-04-10T15:08:40.369Z,57.70
2018-04-10T15:11:07.858Z,57.70
2018-04-10T15:13:35.344Z,57.40
2018-04-10T15:16:03.628Z,57.80
2018-04-10T15:18:31.939Z,57.70
2018-04-10T15:20:59.857Z,57.70
2018-04-10T15:23:27.474Z,57.20
2018-04-10T15:25:54.988Z,57.90
2018-04-10T15:28:23.336Z,57.90
2018-04-10T15:30:50.928Z,57.90
2018-04-10T15:33:19.261Z,58.40
2018-04-10T15:35:46.797Z,58.40
2018-04-10T15:38:14.339Z,58.40
2018-04-10T15:40:41.828Z,58.30
2018-04-10T15:43:09.351Z,58.20
2018-04-10T15:45:36.872Z,58.50
2018-04-10T15:48:04.386Z,58.60
2018-04-10T15:50:32.176Z,58.90
2018-04-10T15:52:59.709Z,58.90
2018-04-10T15:55:28.012Z,58.70
2018-04-10T15:57:55.760Z,58.10
2018-04-10T16:00:23.260Z,57.90
2018-04-10T16:02:51.512Z,58.40
2018-04-10T16:05:19.836Z,58.50
2018-04-10T16:07:48.982Z,59.00
2018-04-10T16:10:16.546Z,59.00
2018-04-10T16:12:44.878Z,59.00
2018-04-10T16:15:13.145Z,59.70
2018-04-10T16:17:41.425Z,59.60
2018-04-10T16:20:09.753Z,59.30
2018-04-10T16:22:37.318Z,59.20
2018-04-10T16:25:05.528Z,59.50
2018-04-10T16:27:33.804Z,60.30
2018-04-10T16:30:02.227Z,60.80
2018-04-10T16:32:29.721Z,60.80
2018-04-10T16:34:58.021Z,61.00
2018-04-10T16:37:26.328Z,60.10
2018-04-10T16:39:53.831Z,60.00
2018-04-10T16:42:21.693Z,60.10
2018-04-10T16:44:50.696Z,61.30
2018-04-10T16:47:18.670Z,61.30
2018-04-10T16:49:47.016Z,62.40
2018-04-10T16:52:14.526Z,61.70
2018-04-10T16:54:43.321Z,62.00
2018-04-10T16:57:11.692Z,62.20
2018-04-10T16:59:39.995Z,63.10
2018-04-10T17:02:07.529Z,62.90
2018-04-10T17:04:35.216Z,63.80
2018-04-10T17:07:02.700Z,64.60
2018-04-10T17:09:30.209Z,65.30
2018-04-10T17:11:57.843Z,65.60
2018-04-10T17:14:25.373Z,65.70
2018-04-10T17:16:52.909Z,65.90
2018-04-10T17:19:20.396Z,66.10
2018-04-10T17:21:47.924Z,66.40
2018-04-10T17:24:15.441Z,66.20
2018-04-10T17:26:42.967Z,66.20
2018-04-10T17:29:10.466Z,67.10
2018-04-10T17:31:39.085Z,70.50
2018-04-10T17:34:06.608Z,70.50
2018-04-10T17:36:34.880Z,69.60
2018-04-10T17:39:03.170Z,71.50
2018-04-10T17:41:31.447Z,74.40
2018-04-10T17:43:58.979Z,74.40
2018-04-10T17:46:27.232Z,78.00
2018-04-10T17:48:54.749Z,77.70
2018-04-10T17:51:22.261Z,78.80
2018-04-10T17:53:49.809Z,78.90
2018-04-10T17:56:17.500Z,79.40
2018-04-10T17:58:45.756Z,81.10
2018-04-10T18:01:13.371Z,80.10
2018-04-10T18:03:40.979Z,81.50
2018-04-10T18:06:08.549Z,81.30
2018-04-10T18:08:37.072Z,82.00
2018-04-10T18:11:04.648Z,82.10
2018-04-10T18:13:32.270Z,81.40
2018-04-10T18:16:00.719Z,80.90
2018-04-10T18:18:28.286Z,80.90
2018-04-10T18:20:56.003Z,81.60
2018-04-10T18:23:24.499Z,81.70
2018-04-10T18:25:53.968Z,82.00
2018-04-10T18:28:22.517Z,82.00
2018-04-10T18:30:51.381Z,82.00
2018-04-10T18:33:20.052Z,80.70
2018-04-10T18:35:47.954Z,81.00
2018-04-10T18:38:16.277Z,80.50
2018-04-10T18:40:43.957Z,80.60
2018-04-10T18:43:12.835Z,80.50
2018-04-10T18:45:42.165Z,80.40
2018-04-10T18:48:11.403Z,81.10
2018-04-10T18:50:39.822Z,80.40
2018-04-10T18:53:07.673Z,80.20
2018-04-10T18:55:35.984Z,84.40
2018-04-10T18:58:03.512Z,84.40
2018-04-10T19:00:31.137Z,85.80
2018-04-10T19:02:59.439Z,88.50
2018-04-10T19:05:26.954Z,88.50
2018-04-10T19:07:55.246Z,90.50
2018-04-10T19:10:22.767Z,90.60
2018-04-10T19:12:50.290Z,91.50
2018-04-10T19:15:17.809Z,92.40
2018-04-10T19:17:46.983Z,92.90
2018-04-10T19:20:22.414Z,93.80
2018-04-10T19:22:50.358Z,94.00
2018-04-10T19:25:17.893Z,94.30
2018-04-10T19:27:46.192Z,94.30
2018-04-10T19:30:14.708Z,94.90
2018-04-10T19:32:43.159Z,94.90
2018-04-10T19:35:10.859Z,95.90
2018-04-10T19:37:39.147Z,96.10
2018-04-10T19:40:08.676Z,96.50
2018-04-10T19:42:37.934Z,96.80
2018-04-10T19:45:05.454Z,96.90
2018-04-10T19:47:33.451Z,97.30
2018-04-10T19:50:01.038Z,97.50
2018-04-10T19:52:28.645Z,97.60
2018-04-10T19:54:56.232Z,97.30
2018-04-10T19:57:23.713Z,97.40
2018-04-10T19:59:51.270Z,97.60
2018-04-10T20:02:18.808Z,97.50
2018-04-10T20:04:46.585Z,98.10
2018-04-10T20:07:14.128Z,98.00
2018-04-10T20:09:41.676Z,97.90
2018-04-10T20:12:09.226Z,98.10
2018-04-10T20:14:37.525Z,99.10
2018-04-10T20:17:05.064Z,99.00
2018-04-10T20:19:32.614Z,99.40
2018-04-10T20:22:01.230Z,99.60
2018-04-10T20:24:28.760Z,99.60
2018-04-10T20:26:56.296Z,99.50
2018-04-10T20:29:23.939Z,99.30
2018-04-10T20:31:51.521Z,99.20
2018-04-10T20:34:19.809Z,99.30
2018-04-10T20:36:48.523Z,99.00
2018-04-10T20:39:16.032Z,99.40
2018-04-10T20:41:43.516Z,98.90
2018-04-10T20:44:11.062Z,98.80
2018-04-10T20:46:38.561Z,98.70
2018-04-10T20:49:06.151Z,98.80
2018-04-10T20:51:33.670Z,98.50
2018-04-10T20:54:01.166Z,98.70
2018-04-10T20:56:28.966Z,98.70
2018-04-10T20:58:57.239Z,98.90
2018-04-10T21:01:25.007Z,99.00
2018-04-10T21:03:53.371Z,99.20
2018-04-10T21:06:20.996Z,99.20
2018-04-10T21:08:48.512Z,99.30
2018-04-10T21:11:16.101Z,99.20
2018-04-10T21:13:43.628Z,99.30
2018-04-10T21:16:11.910Z,99.60
2018-04-10T21:18:39.469Z,99.50
2018-04-10T21:21:06.979Z,99.50
2018-04-10T21:23:34.493Z,99.70
2018-04-10T21:26:02.032Z,99.90
2018-04-10T21:28:30.416Z,99.80
2018-04-10T21:30:58.702Z,99.30
2018-04-10T21:33:26.980Z,99.40
2018-04-10T21:35:54.497Z,99.40
2018-04-10T21:38:22.027Z,98.80
2018-04-10T21:40:49.545Z,98.70
2018-04-10T21:43:23.547Z,99.30
2018-04-10T21:45:51.835Z,99.00
2018-04-10T21:48:20.121Z,99.20
2018-04-10T21:50:48.404Z,99.30
2018-04-10T21:53:15.931Z,99.30
2018-04-10T21:55:44.221Z,99.60
2018-04-10T21:58:12.491Z,99.90
2018-04-10T22:00:40.002Z,99.90
2018-04-10T22:03:07.516Z,99.90
2018-04-10T22:05:35.080Z,99.90
2018-04-10T22:08:02.950Z,99.30
2018-04-10T22:10:30.507Z,99.50
2018-04-10T22:12:58.013Z,99.70
2018-04-10T22:15:25.533Z,99.90
2018-04-10T22:17:53.088Z,99.90
2018-04-10T22:20:21.519Z,99.70
2018-04-10T22:22:49.021Z,99.60
2018-04-10T22:25:16.652Z,99.90
2018-04-10T22:27:44.161Z,99.60
2018-04-10T22:30:11.708Z,99.50
2018-04-10T22:32:39.183Z,99.50
2018-04-10T22:35:06.735Z,99.20
2018-04-10T22:37:34.234Z,98.80
2018-04-10T22:40:02.545Z,98.60
2018-04-10T22:42:30.040Z,98.60
2018-04-10T22:44:57.598Z,98.30
2018-04-10T22:47:25.125Z,98.30
2018-04-10T22:49:52.614Z,98.00
2018-04-10T22:52:20.196Z,98.20
2018-04-10T22:54:48.476Z,98.40
2018-04-10T22:57:16.791Z,98.70
2018-04-10T22:59:44.281Z,98.70
2018-04-10T23:02:11.845Z,98.80
2018-04-10T23:04:39.475Z,98.60
2018-04-10T23:07:06.957Z,99.10
2018-04-10T23:09:34.571Z,99.20
2018-04-10T23:12:02.105Z,99.30
2018-04-10T23:14:30.436Z,99.60
2018-04-10T23:16:57.961Z,99.50
2018-04-10T23:19:26.286Z,98.60
2018-04-10T23:21:53.818Z,98.60
2018-04-10T23:24:22.210Z,98.70
2018-04-10T23:26:49.724Z,98.70
2018-04-10T23:29:17.214Z,98.40
2018-04-10T23:31:44.713Z,98.20
2018-04-10T23:34:12.218Z,97.70
2018-04-10T23:36:39.799Z,97.50
2018-04-10T23:39:07.326Z,97.60
2018-04-10T23:41:34.835Z,96.90
2018-04-10T23:44:02.411Z,97.00
2018-04-10T23:46:29.915Z,96.70
2018-04-10T23:48:58.177Z,96.60
2018-04-10T23:51:25.693Z,96.60
2018-04-10T23:53:53.183Z,97.00
2018-04-10T23:56:20.744Z,97.10
2018-04-10T23:58:48.252Z,97.20
